createdAt,value
2022-10-12T00:00:20.265Z,18.14
2022-10-12T00:03:24.945Z,18.06
2022-10-12T00:06:28.408Z,17.95
2022-10-12T00:09:31.624Z,17.99
2022-10-12T00:12:35.297Z,18.20
2022-10-12T00:15:39.296Z,18.23
2022-10-12T00:18:43.938Z,18.24
2022-10-12T00:21:47.183Z,18.06
2022-10-12T00:24:50.466Z,18.30
2022-10-12T00:27:53.633Z,18.14
2022-10-12T00:30:56.807Z,17.88
2022-10-12T00:34:03.229Z,18.24
2022-10-12T00:37:25.473Z,18.41
2022-10-12T00:40:32.273Z,18.27
2022-10-12T00:43:39.066Z,18.13
2022-10-12T00:46:46.225Z,18.12
2022-10-12T00:49:55.013Z,18.23
2022-10-12T00:53:04.279Z,18.31
2022-10-12T00:56:12.304Z,18.31
2022-10-12T00:59:20.879Z,18.30
2022-10-12T01:02:25.989Z,18.34
2022-10-12T01:05:30.539Z,18.25
2022-10-12T01:08:34.384Z,18.25
2022-10-12T01:11:37.574Z,18.33
2022-10-12T01:14:40.819Z,18.30
2022-10-12T01:17:53.376Z,18.21
2022-10-12T01:21:11.785Z,17.84
2022-10-12T01:24:48.647Z,17.85
2022-10-12T01:27:55.886Z,17.90
2022-10-12T01:31:05.931Z,18.00
2022-10-12T01:34:14.415Z,18.10
2022-10-12T01:37:25.299Z,18.08
2022-10-12T01:40:34.814Z,18.03
2022-10-12T01:43:40.043Z,18.08
2022-10-12T01:46:46.564Z,17.96
2022-10-12T01:49:49.884Z,17.76
2022-10-12T01:53:04.808Z,17.88
2022-10-12T01:56:12.935Z,17.84
2022-10-12T01:59:27.509Z,17.77
2022-10-12T02:02:40.230Z,17.57
2022-10-12T02:05:49.539Z,17.63
2022-10-12T02:08:59.916Z,17.66
2022-10-12T02:12:07.853Z,17.71
2022-10-12T02:15:15.764Z,17.79
2022-10-12T02:18:22.673Z,17.82
2022-10-12T02:21:31.223Z,17.87
2022-10-12T02:24:38.176Z,17.96
2022-10-12T02:27:47.516Z,17.80
2022-10-12T02:30:55.429Z,17.65
2022-10-12T02:34:05.937Z,17.62
2022-10-12T02:37:13.527Z,17.80
2022-10-12T02:40:22.989Z,17.82
2022-10-12T02:43:30.786Z,17.66
2022-10-12T02:46:36.203Z,17.79
2022-10-12T02:49:42.646Z,17.68
2022-10-12T02:52:46.428Z,17.89
2022-10-12T02:56:02.036Z,17.74
2022-10-12T02:59:05.239Z,17.74
2022-10-12T03:02:09.059Z,17.82
2022-10-12T03:05:13.623Z,17.70
2022-10-12T03:08:16.866Z,17.66
2022-10-12T03:11:20.284Z,17.66
2022-10-12T03:14:23.480Z,17.78
2022-10-12T03:17:26.701Z,17.88
2022-10-12T03:20:31.272Z,17.79
2022-10-12T03:23:34.599Z,17.71
2022-10-12T03:26:37.881Z,17.92
2022-10-12T03:29:41.149Z,17.50
2022-10-12T03:32:44.310Z,17.64
2022-10-12T03:35:49.296Z,17.60
2022-10-12T03:38:52.635Z,17.54
2022-10-12T03:41:55.806Z,17.59
2022-10-12T03:44:58.966Z,17.56
2022-10-12T03:48:05.120Z,17.49
2022-10-12T03:51:09.952Z,17.30
2022-10-12T03:54:13.120Z,17.50
2022-10-12T03:57:16.303Z,17.51
2022-10-12T04:00:19.995Z,17.50
2022-10-12T04:03:23.597Z,17.40
2022-10-12T04:06:28.213Z,17.38
2022-10-12T04:09:31.554Z,17.43
2022-10-12T04:12:34.956Z,17.54
2022-10-12T04:15:38.268Z,17.51
2022-10-12T04:18:41.615Z,17.44
2022-10-12T04:21:46.205Z,17.26
2022-10-12T04:24:49.409Z,17.21
2022-10-12T04:27:52.585Z,17.15
2022-10-12T04:30:55.843Z,17.10
2022-10-12T04:33:59.130Z,17.14
2022-10-12T04:37:03.870Z,17.14
2022-10-12T04:40:08.439Z,17.47
2022-10-12T04:43:11.793Z,17.47
2022-10-12T04:46:15.492Z,17.38
2022-10-12T04:49:18.678Z,17.50
2022-10-12T04:52:23.354Z,17.44
2022-10-12T04:55:26.713Z,17.51
2022-10-12T04:58:29.951Z,17.52
2022-10-12T05:01:33.221Z,17.54
2022-10-12T05:04:36.496Z,17.66
2022-10-12T05:07:41.323Z,17.46
2022-10-12T05:10:46.222Z,17.76
2022-10-12T05:13:49.476Z,17.82
2022-10-12T05:16:52.705Z,17.70
2022-10-12T05:19:55.826Z,17.48
2022-10-12T05:23:00.700Z,17.51
2022-10-12T05:26:04.449Z,17.51
2022-10-12T05:29:07.743Z,17.55
2022-10-12T05:32:10.954Z,17.53
2022-10-12T05:35:14.238Z,17.53
2022-10-12T05:38:19.160Z,17.71
2022-10-12T05:41:22.333Z,17.70
2022-10-12T05:44:25.861Z,17.54
2022-10-12T05:47:29.147Z,17.59
2022-10-12T05:50:32.348Z,17.81
2022-10-12T05:53:37.901Z,17.70
2022-10-12T05:56:41.203Z,17.59
2022-10-12T05:59:44.566Z,17.73
2022-10-12T06:02:47.753Z,17.69
2022-10-12T06:05:51.004Z,17.56
2022-10-12T06:08:55.580Z,17.52
2022-10-12T06:11:59.053Z,17.65
2022-10-12T06:15:06.122Z,17.91
2022-10-12T06:18:09.407Z,17.74
2022-10-12T06:24:37.625Z,18.25
2022-10-12T06:27:40.865Z,18.23
2022-10-12T06:30:44.121Z,18.08
2022-10-12T06:33:47.340Z,18.34
2022-10-12T06:36:50.553Z,18.32
2022-10-12T06:39:55.161Z,18.30
2022-10-12T06:43:02.664Z,18.03
2022-10-12T06:46:06.285Z,17.61
2022-10-12T06:49:10.428Z,18.06
2022-10-12T06:52:13.608Z,18.08
2022-10-12T06:55:18.424Z,18.06
2022-10-12T06:58:21.643Z,18.10
2022-10-12T07:01:24.953Z,18.32
2022-10-12T07:04:28.400Z,18.19
2022-10-12T07:07:32.792Z,18.22
2022-10-12T07:10:37.434Z,18.24
2022-10-12T07:13:41.065Z,18.30
2022-10-12T07:16:44.329Z,18.41
2022-10-12T07:19:47.756Z,18.55
2022-10-12T07:22:50.930Z,18.45
2022-10-12T07:25:56.125Z,18.62
2022-10-12T07:28:59.365Z,18.63
2022-10-12T07:32:02.861Z,18.59
2022-10-12T07:35:06.959Z,18.74
2022-10-12T07:38:11.116Z,18.83
2022-10-12T07:41:16.508Z,19.24
2022-10-12T07:44:21.038Z,19.15
2022-10-12T07:47:24.414Z,19.15
2022-10-12T07:50:27.700Z,19.04
2022-10-12T07:53:30.916Z,19.47
2022-10-12T07:56:35.726Z,19.41
2022-10-12T07:59:39.126Z,19.16
2022-10-12T08:02:42.472Z,19.42
2022-10-12T08:05:45.699Z,19.37
2022-10-12T08:08:49.441Z,19.30
2022-10-12T08:11:54.187Z,19.70
2022-10-12T08:14:57.453Z,19.53
2022-10-12T08:18:00.746Z,19.60
2022-10-12T08:21:05.702Z,19.68
2022-10-12T08:24:09.716Z,20.10
2022-10-12T08:27:14.321Z,20.49
2022-10-12T08:30:17.675Z,20.53
2022-10-12T08:33:21.304Z,20.51
2022-10-12T08:36:24.570Z,20.63
2022-10-12T08:39:28.165Z,20.60
2022-10-12T08:42:45.613Z,20.83
2022-10-12T08:45:53.929Z,20.55
2022-10-12T08:49:01.828Z,20.58
2022-10-12T08:52:07.115Z,20.54
2022-10-12T08:55:21.909Z,21.02
2022-10-12T08:58:30.083Z,20.70
2022-10-12T09:01:38.652Z,20.84
2022-10-12T09:04:51.968Z,21.30
2022-10-12T09:07:59.447Z,21.22
2022-10-12T09:11:13.388Z,21.23
2022-10-12T09:14:23.360Z,21.02
2022-10-12T09:17:30.765Z,21.00
2022-10-12T09:20:41.622Z,21.20
2022-10-12T09:23:45.396Z,20.83
2022-10-12T09:26:53.223Z,21.15
2022-10-12T09:30:02.897Z,21.37
2022-10-12T09:33:18.120Z,21.26
2022-10-12T09:36:23.492Z,21.34
2022-10-12T09:39:31.828Z,21.33
2022-10-12T09:42:35.746Z,21.37
2022-10-12T09:45:40.643Z,21.27
2022-10-12T09:48:58.594Z,21.66
2022-10-12T09:52:02.143Z,21.62
2022-10-12T09:55:09.153Z,21.72
2022-10-12T09:58:21.784Z,21.78
2022-10-12T10:01:29.494Z,21.43
2022-10-12T10:04:33.118Z,21.72
2022-10-12T10:07:36.451Z,22.06
2022-10-12T10:10:49.904Z,22.23
2022-10-12T10:13:55.049Z,22.17
2022-10-12T10:16:59.796Z,21.99
2022-10-12T10:20:06.444Z,22.26
2022-10-12T10:23:25.778Z,22.00
2022-10-12T10:26:32.008Z,22.04
2022-10-12T10:29:37.961Z,22.03
2022-10-12T10:32:42.702Z,22.11
2022-10-12T10:36:01.400Z,21.95
2022-10-12T10:39:08.327Z,22.46
2022-10-12T10:42:13.187Z,22.27
2022-10-12T10:45:25.587Z,22.44
2022-10-12T10:48:33.545Z,22.63
2022-10-12T10:51:43.149Z,22.99
2022-10-12T10:54:46.626Z,23.78
2022-10-12T10:57:59.062Z,23.90
2022-10-12T11:01:07.248Z,23.69
2022-10-12T11:04:18.818Z,23.18
2022-10-12T11:07:29.185Z,22.42
2022-10-12T11:10:36.284Z,22.83
2022-10-12T11:13:44.257Z,22.52
2022-10-12T11:16:52.240Z,21.91
2022-10-12T11:20:07.395Z,22.49
2022-10-12T11:23:19.824Z,22.74
2022-10-12T11:26:29.708Z,22.89
2022-10-12T11:29:33.035Z,23.01
2022-10-12T11:32:40.128Z,23.25
2022-10-12T11:35:47.167Z,23.20
2022-10-12T11:38:54.665Z,22.66
2022-10-12T11:42:20.823Z,22.28
2022-10-12T11:45:28.673Z,22.18
2022-10-12T11:48:38.139Z,22.06
2022-10-12T11:51:46.959Z,22.21
2022-10-12T11:54:59.524Z,22.07
2022-10-12T11:58:13.572Z,22.39
2022-10-12T12:01:41.652Z,22.48
2022-10-12T12:04:47.209Z,22.48
2022-10-12T12:07:54.545Z,22.56
2022-10-12T12:11:07.580Z,22.63
2022-10-12T12:14:46.736Z,22.58
2022-10-12T12:18:13.658Z,22.26
2022-10-12T12:21:17.019Z,22.32
2022-10-12T12:24:21.744Z,22.42
2022-10-12T12:27:32.883Z,22.36
2022-10-12T12:30:39.130Z,22.01
2022-10-12T12:33:46.333Z,22.31
2022-10-12T12:36:51.746Z,21.83
2022-10-12T12:39:58.961Z,22.00
2022-10-12T12:43:37.608Z,21.97
2022-10-12T12:47:45.220Z,22.10
2022-10-12T12:50:42.239Z,22.12
2022-10-12T12:53:50.229Z,22.33
2022-10-12T12:57:28.518Z,22.66
2022-10-12T13:00:39.419Z,22.87
2022-10-12T13:04:16.732Z,23.20
2022-10-12T13:07:58.161Z,23.41
2022-10-12T13:11:39.038Z,23.04
2022-10-12T13:15:15.254Z,22.84
2022-10-12T13:18:48.259Z,22.44
2022-10-12T13:21:54.182Z,22.40
2022-10-12T13:25:02.044Z,22.11
2022-10-12T13:28:11.741Z,22.10
2022-10-12T13:31:20.326Z,22.17
2022-10-12T13:34:28.328Z,22.09
2022-10-12T13:37:33.434Z,22.02
2022-10-12T13:40:41.527Z,21.68
2022-10-12T13:43:47.131Z,21.68
2022-10-12T13:46:54.955Z,21.56
2022-10-12T13:49:58.679Z,21.75
2022-10-12T13:53:01.829Z,21.79
2022-10-12T13:56:10.449Z,21.77
2022-10-12T13:59:19.223Z,21.84
2022-10-12T14:02:26.832Z,21.97
2022-10-12T14:05:32.230Z,22.05
2022-10-12T14:08:36.709Z,21.93
2022-10-12T14:11:41.631Z,22.12
2022-10-12T14:14:47.749Z,22.13
2022-10-12T14:17:52.757Z,22.19
2022-10-12T14:21:07.380Z,22.22
2022-10-12T14:24:11.732Z,22.04
2022-10-12T14:27:24.336Z,22.17
2022-10-12T14:30:31.076Z,22.16
2022-10-12T14:33:35.676Z,21.86
2022-10-12T14:36:39.076Z,21.98
2022-10-12T14:39:43.812Z,21.92
2022-10-12T14:42:55.968Z,21.96
2022-10-12T14:45:59.200Z,21.88
2022-10-12T14:49:03.819Z,21.55
2022-10-12T14:52:07.647Z,21.76
2022-10-12T14:55:16.817Z,21.64
2022-10-12T14:58:20.057Z,21.63
2022-10-12T15:01:24.564Z,21.54
2022-10-12T15:04:29.246Z,21.52
2022-10-12T15:07:34.660Z,21.49
2022-10-12T15:10:38.576Z,21.50
2022-10-12T15:13:42.548Z,21.46
2022-10-12T15:16:45.803Z,21.32
2022-10-12T15:19:52.460Z,21.29
2022-10-12T15:22:55.657Z,21.34
2022-10-12T15:26:00.403Z,21.36
2022-10-12T15:29:03.625Z,21.33
2022-10-12T15:32:10.294Z,21.30
2022-10-12T15:35:20.734Z,21.17
2022-10-12T15:38:24.132Z,21.13
2022-10-12T15:41:27.946Z,21.10
2022-10-12T15:44:31.177Z,20.95
2022-10-12T15:47:34.386Z,20.83
2022-10-12T15:50:41.412Z,20.83
2022-10-12T15:53:45.066Z,20.83
2022-10-12T15:56:49.595Z,20.71
2022-10-12T15:59:53.428Z,20.72
2022-10-12T16:02:57.879Z,20.59
2022-10-12T16:06:02.496Z,20.44
2022-10-12T16:09:05.769Z,20.58
2022-10-12T16:12:09.037Z,20.52
2022-10-12T16:15:16.440Z,20.61
2022-10-12T16:18:19.894Z,20.59
2022-10-12T16:21:24.551Z,20.57
2022-10-12T16:24:27.757Z,20.49
2022-10-12T16:27:31.083Z,20.55
2022-10-12T16:30:34.384Z,20.55
2022-10-12T16:33:37.766Z,20.56
2022-10-12T16:36:42.372Z,20.51
2022-10-12T16:39:45.926Z,20.34
2022-10-12T16:42:53.724Z,20.27
2022-10-12T16:45:57.520Z,20.39
2022-10-12T16:49:00.761Z,20.40
2022-10-12T16:52:05.439Z,20.32
2022-10-12T16:55:09.473Z,20.14
2022-10-12T16:58:12.776Z,20.31
2022-10-12T17:01:16.031Z,20.38
2022-10-12T17:04:19.586Z,20.34
2022-10-12T17:07:24.283Z,20.39
2022-10-12T17:10:27.462Z,20.35
2022-10-12T17:13:32.923Z,20.05
2022-10-12T17:16:52.368Z,20.12
2022-10-12T17:19:55.754Z,19.81
2022-10-12T17:23:00.414Z,19.89
2022-10-12T17:26:03.624Z,19.96
2022-10-12T17:29:07.556Z,19.98
2022-10-12T17:32:12.380Z,19.92
2022-10-12T17:35:18.961Z,19.76
2022-10-12T17:38:23.617Z,19.86
2022-10-12T17:41:28.863Z,19.88
2022-10-12T17:44:32.287Z,19.78
2022-10-12T17:47:35.525Z,19.50
2022-10-12T17:50:38.752Z,19.64
2022-10-12T17:53:44.172Z,19.53
2022-10-12T17:56:47.582Z,19.40
2022-10-12T17:59:50.783Z,19.43
2022-10-12T18:02:54.092Z,19.56
2022-10-12T18:05:57.322Z,19.49
2022-10-12T18:09:03.318Z,19.49
2022-10-12T18:12:06.854Z,19.47
2022-10-12T18:15:10.694Z,19.48
2022-10-12T18:18:15.378Z,19.38
2022-10-12T18:21:19.865Z,19.30
2022-10-12T18:24:25.160Z,19.06
2022-10-12T18:27:28.371Z,19.01
2022-10-12T18:30:31.527Z,18.62
2022-10-12T18:33:35.609Z,18.93
2022-10-12T18:36:40.009Z,18.92
2022-10-12T18:39:44.655Z,19.07
2022-10-12T18:42:48.149Z,19.05
2022-10-12T18:45:51.343Z,19.04
2022-10-12T18:48:54.569Z,18.93
2022-10-12T18:51:58.240Z,18.89
2022-10-12T18:55:03.045Z,18.81
2022-10-12T18:58:06.916Z,18.78
2022-10-12T19:01:11.758Z,18.75
2022-10-12T19:04:15.097Z,18.61
2022-10-12T19:07:18.336Z,18.73
2022-10-12T19:10:23.121Z,18.72
2022-10-12T19:13:26.450Z,18.63
2022-10-12T19:16:30.784Z,18.57
2022-10-12T19:19:34.029Z,18.70
2022-10-12T19:22:37.397Z,18.60
2022-10-12T19:25:42.093Z,18.55
2022-10-12T19:28:45.738Z,18.52
2022-10-12T19:31:50.934Z,18.55
2022-10-12T19:34:54.162Z,18.52
2022-10-12T19:37:57.607Z,18.47
2022-10-12T19:41:02.516Z,18.19
2022-10-12T19:44:06.122Z,18.44
2022-10-12T19:47:09.346Z,18.41
2022-10-12T19:50:12.566Z,18.42
2022-10-12T19:53:16.151Z,18.25
2022-10-12T19:56:22.041Z,18.10
2022-10-12T19:59:25.330Z,18.06
2022-10-12T20:02:28.550Z,18.03
2022-10-12T20:05:31.769Z,18.06
2022-10-12T20:08:35.440Z,18.09
2022-10-12T20:11:40.242Z,17.67
2022-10-12T20:14:43.504Z,17.91
2022-10-12T20:17:46.699Z,17.82
2022-10-12T20:20:50.455Z,17.81
2022-10-12T20:23:53.684Z,17.23
2022-10-12T20:26:58.359Z,16.90
2022-10-12T20:30:01.562Z,17.43
2022-10-12T20:33:05.557Z,17.46
2022-10-12T20:36:11.155Z,17.14
2022-10-12T20:39:14.499Z,17.02
2022-10-12T20:42:21.971Z,17.17
2022-10-12T20:45:25.571Z,17.25
2022-10-12T20:48:28.787Z,17.38
2022-10-12T20:51:34.180Z,17.47
2022-10-12T20:54:37.784Z,17.36
2022-10-12T20:57:42.415Z,17.35
2022-10-12T21:00:45.762Z,17.45
2022-10-12T21:03:48.995Z,17.56
2022-10-12T21:06:53.163Z,17.62
2022-10-12T21:09:56.370Z,17.66
2022-10-12T21:13:00.959Z,17.45
2022-10-12T21:16:04.189Z,17.20
2022-10-12T21:19:07.841Z,17.29
2022-10-12T21:22:11.764Z,17.20
2022-10-12T21:25:15.133Z,17.25
2022-10-12T21:28:20.069Z,17.33
2022-10-12T21:31:27.018Z,17.43
2022-10-12T21:34:32.755Z,17.23
2022-10-12T21:37:36.011Z,17.24
2022-10-12T21:40:39.308Z,17.21
2022-10-12T21:43:44.459Z,16.89
2022-10-12T21:46:47.699Z,17.00
2022-10-12T21:49:50.880Z,16.76
2022-10-12T21:52:59.329Z,16.65
2022-10-12T21:56:06.994Z,16.63
2022-10-12T21:59:12.057Z,16.58
2022-10-12T22:02:15.379Z,16.64
2022-10-12T22:05:18.770Z,16.46
2022-10-12T22:08:22.009Z,16.61
2022-10-12T22:11:27.262Z,16.84
2022-10-12T22:14:31.845Z,16.96
2022-10-12T22:17:36.004Z,17.11
2022-10-12T22:20:39.229Z,16.76
2022-10-12T22:23:43.067Z,16.60
2022-10-12T22:26:46.607Z,16.48
2022-10-12T22:29:51.873Z,16.48
2022-10-12T22:32:55.041Z,16.27
2022-10-12T22:36:00.154Z,16.37
2022-10-12T22:39:04.685Z,16.55
2022-10-12T22:42:07.892Z,16.75
2022-10-12T22:45:12.603Z,16.83
2022-10-12T22:48:15.865Z,16.33
2022-10-12T22:51:22.705Z,16.67
2022-10-12T22:54:25.958Z,16.46
2022-10-12T22:57:31.085Z,16.56
2022-10-12T23:00:35.803Z,16.68
2022-10-12T23:03:39.853Z,16.73
2022-10-12T23:06:45.870Z,16.79
2022-10-12T23:09:49.806Z,16.84
2022-10-12T23:12:53.002Z,16.92
2022-10-12T23:16:02.389Z,16.82
2022-10-12T23:19:07.024Z,16.85
2022-10-12T23:22:10.259Z,16.74
2022-10-12T23:25:13.453Z,16.77
2022-10-12T23:28:16.719Z,16.61
2022-10-12T23:31:23.050Z,16.74
2022-10-12T23:34:29.175Z,16.81
2022-10-12T23:37:32.389Z,16.42
2022-10-12T23:40:36.265Z,16.52
2022-10-12T23:43:42.986Z,16.62
2022-10-12T23:46:47.586Z,16.29
2022-10-12T23:49:50.838Z,16.38
2022-10-12T23:52:54.165Z,16.42
2022-10-12T23:55:57.784Z,16.45
2022-10-12T23:59:02.457Z,16.57
